sensor_id;sensor_type;location;lat;lon;timestamp;temperature;humidity
16477;DHT22;8349;50.928;6.376;2022-08-21T00:00:20;15.80;99.90
16477;DHT22;8349;50.928;6.376;2022-08-21T00:02:48;15.70;99.90
16477;DHT22;8349;50.928;6.376;2022-08-21T00:05:15;15.70;99.90
16477;DHT22;8349;50.928;6.376;2022-08-21T00:07:42;15.70;99.90
16477;DHT22;8349;50.928;6.376;2022-08-21T00:10:09;15.70;99.90
16477;DHT22;8349;50.928;6.376;2022-08-21T00:12:37;15.60;99.90
16477;DHT22;8349;50.928;6.376;2022-08-21T00:15:06;15.60;99.90
16477;DHT22;8349;50.928;6.376;2022-08-21T00:17:34;15.50;99.90
16477;DHT22;8349;50.928;6.376;2022-08-21T00:20:01;15.50;99.90
16477;DHT22;8349;50.928;6.376;2022-08-21T00:22:27;15.50;99.90
16477;DHT22;8349;50.928;6.376;2022-08-21T00:24:54;15.50;99.90
16477;DHT22;8349;50.928;6.376;2022-08-21T00:27:21;15.40;99.90
16477;DHT22;8349;50.928;6.376;2022-08-21T00:29:48;15.40;99.90
16477;DHT22;8349;50.928;6.376;2022-08-21T00:32:20;15.40;99.90
16477;DHT22;8349;50.928;6.376;2022-08-21T00:34:47;15.30;99.90
16477;DHT22;8349;50.928;6.376;2022-08-21T00:37:14;15.30;99.90
16477;DHT22;8349;50.928;6.376;2022-08-21T00:39:41;15.30;99.90
16477;DHT22;8349;50.928;6.376;2022-08-21T00:42:08;15.30;99.90
16477;DHT22;8349;50.928;6.376;2022-08-21T00:44:35;15.30;99.90
16477;DHT22;8349;50.928;6.376;2022-08-21T00:47:02;15.20;99.90
16477;DHT22;8349;50.928;6.376;2022-08-21T00:49:30;15.20;99.90
16477;DHT22;8349;50.928;6.376;2022-08-21T00:51:58;15.20;99.90
16477;DHT22;8349;50.928;6.376;2022-08-21T00:54:26;15.20;99.90
16477;DHT22;8349;50.928;6.376;2022-08-21T00:56:54;15.10;99.90
16477;DHT22;8349;50.928;6.376;2022-08-21T00:59:22;15.10;99.90
16477;DHT22;8349;50.928;6.376;2022-08-21T01:01:49;15.10;99.90
16477;DHT22;8349;50.928;6.376;2022-08-21T01:04:17;15.10;99.90
16477;DHT22;8349;50.928;6.376;2022-08-21T01:06:46;15.00;99.90
16477;DHT22;8349;50.928;6.376;2022-08-21T01:09:13;15.00;99.90
16477;DHT22;8349;50.928;6.376;2022-08-21T01:11:40;14.90;99.90
16477;DHT22;8349;50.928;6.376;2022-08-21T01:14:08;14.90;99.90
16477;DHT22;8349;50.928;6.376;2022-08-21T01:16:35;14.90;99.90
16477;DHT22;8349;50.928;6.376;2022-08-21T01:19:02;14.90;99.90
16477;DHT22;8349;50.928;6.376;2022-08-21T01:21:30;14.90;99.90
16477;DHT22;8349;50.928;6.376;2022-08-21T01:23:58;14.90;99.90
16477;DHT22;8349;50.928;6.376;2022-08-21T01:26:26;14.90;99.90
16477;DHT22;8349;50.928;6.376;2022-08-21T01:28:54;14.90;99.90
16477;DHT22;8349;50.928;6.376;2022-08-21T01:31:23;14.90;99.90
16477;DHT22;8349;50.928;6.376;2022-08-21T01:33:51;14.90;99.90
16477;DHT22;8349;50.928;6.376;2022-08-21T01:36:17;14.80;99.90
16477;DHT22;8349;50.928;6.376;2022-08-21T01:38:46;14.80;99.90
16477;DHT22;8349;50.928;6.376;2022-08-21T01:41:13;14.70;99.90
16477;DHT22;8349;50.928;6.376;2022-08-21T01:43:40;14.70;99.90
16477;DHT22;8349;50.928;6.376;2022-08-21T01:46:08;14.70;99.90
16477;DHT22;8349;50.928;6.376;2022-08-21T01:48:35;14.70;99.90
16477;DHT22;8349;50.928;6.376;2022-08-21T01:51:02;14.60;99.90
16477;DHT22;8349;50.928;6.376;2022-08-21T01:53:29;14.60;99.90
16477;DHT22;8349;50.928;6.376;2022-08-21T01:55:57;14.60;99.90
16477;DHT22;8349;50.928;6.376;2022-08-21T01:58:24;14.50;99.90
16477;DHT22;8349;50.928;6.376;2022-08-21T02:00:51;14.50;99.90
16477;DHT22;8349;50.928;6.376;2022-08-21T02:03:19;14.50;99.90
16477;DHT22;8349;50.928;6.376;2022-08-21T02:05:45;14.40;99.90
16477;DHT22;8349;50.928;6.376;2022-08-21T02:08:12;14.40;99.90
16477;DHT22;8349;50.928;6.376;2022-08-21T02:10:39;14.30;99.90
16477;DHT22;8349;50.928;6.376;2022-08-21T02:13:08;14.20;99.90
16477;DHT22;8349;50.928;6.376;2022-08-21T02:15:35;14.20;99.90
16477;DHT22;8349;50.928;6.376;2022-08-21T02:18:02;14.10;99.90
16477;DHT22;8349;50.928;6.376;2022-08-21T02:20:30;14.10;99.90
16477;DHT22;8349;50.928;6.376;2022-08-21T02:22:57;14.10;99.90
16477;DHT22;8349;50.928;6.376;2022-08-21T02:25:24;14.00;99.90
16477;DHT22;8349;50.928;6.376;2022-08-21T02:27:52;14.00;99.90
16477;DHT22;8349;50.928;6.376;2022-08-21T02:30:21;13.90;99.90
16477;DHT22;8349;50.928;6.376;2022-08-21T02:32:48;13.90;99.90
16477;DHT22;8349;50.928;6.376;2022-08-21T02:35:15;13.90;99.90
16477;DHT22;8349;50.928;6.376;2022-08-21T02:37:42;13.90;99.90
16477;DHT22;8349;50.928;6.376;2022-08-21T02:40:10;13.80;99.90
16477;DHT22;8349;50.928;6.376;2022-08-21T02:42:37;13.80;99.90
16477;DHT22;8349;50.928;6.376;2022-08-21T02:45:04;13.80;99.90
16477;DHT22;8349;50.928;6.376;2022-08-21T02:47:32;13.80;99.90
16477;DHT22;8349;50.928;6.376;2022-08-21T02:49:59;13.80;99.90
16477;DHT22;8349;50.928;6.376;2022-08-21T02:52:26;13.80;99.90
16477;DHT22;8349;50.928;6.376;2022-08-21T02:54:53;13.70;99.90
16477;DHT22;8349;50.928;6.376;2022-08-21T02:57:19;13.70;99.90
16477;DHT22;8349;50.928;6.376;2022-08-21T02:59:46;13.80;99.90
16477;DHT22;8349;50.928;6.376;2022-08-21T03:02:13;13.80;99.90
16477;DHT22;8349;50.928;6.376;2022-08-21T03:04:41;13.80;99.90
16477;DHT22;8349;50.928;6.376;2022-08-21T03:07:08;13.80;99.90
16477;DHT22;8349;50.928;6.376;2022-08-21T03:09:35;13.80;99.90
16477;DHT22;8349;50.928;6.376;2022-08-21T03:12:01;13.80;99.90
16477;DHT22;8349;50.928;6.376;2022-08-21T03:14:29;13.80;99.90
16477;DHT22;8349;50.928;6.376;2022-08-21T03:16:55;13.90;99.90
16477;DHT22;8349;50.928;6.376;2022-08-21T03:19:22;13.90;99.90
16477;DHT22;8349;50.928;6.376;2022-08-21T03:21:50;13.80;99.90
16477;DHT22;8349;50.928;6.376;2022-08-21T03:24:17;13.80;99.90
16477;DHT22;8349;50.928;6.376;2022-08-21T03:26:44;13.80;99.90
16477;DHT22;8349;50.928;6.376;2022-08-21T03:29:10;13.80;99.90
16477;DHT22;8349;50.928;6.376;2022-08-21T03:31:38;13.80;99.90
16477;DHT22;8349;50.928;6.376;2022-08-21T03:34:05;13.80;99.90
16477;DHT22;8349;50.928;6.376;2022-08-21T03:36:32;13.70;99.90
16477;DHT22;8349;50.928;6.376;2022-08-21T03:39:00;13.70;99.90
16477;DHT22;8349;50.928;6.376;2022-08-21T03:41:26;13.60;99.90
16477;DHT22;8349;50.928;6.376;2022-08-21T03:43:53;13.50;99.90
16477;DHT22;8349;50.928;6.376;2022-08-21T03:46:20;13.50;99.90
16477;DHT22;8349;50.928;6.376;2022-08-21T03:48:47;13.50;99.90
16477;DHT22;8349;50.928;6.376;2022-08-21T03:51:14;13.50;99.90
16477;DHT22;8349;50.928;6.376;2022-08-21T03:53:40;13.50;99.90
16477;DHT22;8349;50.928;6.376;2022-08-21T03:56:09;13.40;99.90
16477;DHT22;8349;50.928;6.376;2022-08-21T03:58:36;13.40;99.90
16477;DHT22;8349;50.928;6.376;2022-08-21T04:01:03;13.30;99.90
16477;DHT22;8349;50.928;6.376;2022-08-21T04:03:31;13.30;99.90
16477;DHT22;8349;50.928;6.376;2022-08-21T04:05:59;13.30;99.90
16477;DHT22;8349;50.928;6.376;2022-08-21T04:08:26;13.30;99.90
16477;DHT22;8349;50.928;6.376;2022-08-21T04:10:53;13.30;99.90
16477;DHT22;8349;50.928;6.376;2022-08-21T04:13:22;13.30;99.90
16477;DHT22;8349;50.928;6.376;2022-08-21T04:15:49;13.30;99.90
16477;DHT22;8349;50.928;6.376;2022-08-21T04:18:16;13.30;99.90
16477;DHT22;8349;50.928;6.376;2022-08-21T04:20:43;13.30;99.90
16477;DHT22;8349;50.928;6.376;2022-08-21T04:23:11;13.30;99.90
16477;DHT22;8349;50.928;6.376;2022-08-21T04:25:38;13.30;99.90
16477;DHT22;8349;50.928;6.376;2022-08-21T04:28:04;13.40;99.90
16477;DHT22;8349;50.928;6.376;2022-08-21T04:30:33;13.40;99.90
16477;DHT22;8349;50.928;6.376;2022-08-21T04:33:00;13.50;99.90
16477;DHT22;8349;50.928;6.376;2022-08-21T04:35:29;13.50;99.90
16477;DHT22;8349;50.928;6.376;2022-08-21T04:37:56;13.50;99.90
16477;DHT22;8349;50.928;6.376;2022-08-21T04:40:23;13.40;99.90
16477;DHT22;8349;50.928;6.376;2022-08-21T04:42:51;13.50;99.90
16477;DHT22;8349;50.928;6.376;2022-08-21T04:45:19;13.50;99.90
16477;DHT22;8349;50.928;6.376;2022-08-21T04:47:52;13.50;99.90
16477;DHT22;8349;50.928;6.376;2022-08-21T04:50:19;13.50;99.90
16477;DHT22;8349;50.928;6.376;2022-08-21T04:53:02;13.50;99.90
16477;DHT22;8349;50.928;6.376;2022-08-21T04:55:30;13.50;99.90
16477;DHT22;8349;50.928;6.376;2022-08-21T04:57:56;13.60;99.90
16477;DHT22;8349;50.928;6.376;2022-08-21T05:00:23;13.60;99.90
16477;DHT22;8349;50.928;6.376;2022-08-21T05:02:52;13.60;99.90
16477;DHT22;8349;50.928;6.376;2022-08-21T05:05:23;13.50;99.90
16477;DHT22;8349;50.928;6.376;2022-08-21T05:07:50;13.50;99.90
16477;DHT22;8349;50.928;6.376;2022-08-21T05:10:18;13.60;99.90
16477;DHT22;8349;50.928;6.376;2022-08-21T05:12:45;13.60;99.90
16477;DHT22;8349;50.928;6.376;2022-08-21T05:15:12;13.60;99.90
16477;DHT22;8349;50.928;6.376;2022-08-21T05:17:39;13.60;99.90
16477;DHT22;8349;50.928;6.376;2022-08-21T05:20:08;13.70;99.90
16477;DHT22;8349;50.928;6.376;2022-08-21T05:22:35;13.80;99.90
16477;DHT22;8349;50.928;6.376;2022-08-21T05:25:02;13.80;99.90
16477;DHT22;8349;50.928;6.376;2022-08-21T05:27:29;13.80;99.90
16477;DHT22;8349;50.928;6.376;2022-08-21T05:29:57;13.80;99.90
16477;DHT22;8349;50.928;6.376;2022-08-21T05:32:24;13.80;99.90
16477;DHT22;8349;50.928;6.376;2022-08-21T05:34:53;13.90;99.90
16477;DHT22;8349;50.928;6.376;2022-08-21T05:37:21;13.90;99.90
16477;DHT22;8349;50.928;6.376;2022-08-21T05:39:48;14.00;99.90
16477;DHT22;8349;50.928;6.376;2022-08-21T05:42:15;14.10;99.90
16477;DHT22;8349;50.928;6.376;2022-08-21T05:44:41;14.20;99.90
16477;DHT22;8349;50.928;6.376;2022-08-21T05:47:10;14.20;99.90
16477;DHT22;8349;50.928;6.376;2022-08-21T05:49:37;14.30;99.90
16477;DHT22;8349;50.928;6.376;2022-08-21T05:52:04;14.50;99.90
16477;DHT22;8349;50.928;6.376;2022-08-21T05:54:32;14.60;99.90
16477;DHT22;8349;50.928;6.376;2022-08-21T05:56:59;14.60;99.90
16477;DHT22;8349;50.928;6.376;2022-08-21T05:59:25;14.70;99.90
16477;DHT22;8349;50.928;6.376;2022-08-21T06:01:53;14.80;99.90
16477;DHT22;8349;50.928;6.376;2022-08-21T06:04:19;14.90;99.90
16477;DHT22;8349;50.928;6.376;2022-08-21T06:06:46;15.10;99.90
16477;DHT22;8349;50.928;6.376;2022-08-21T06:09:13;15.20;99.90
16477;DHT22;8349;50.928;6.376;2022-08-21T06:11:42;15.30;99.90
16477;DHT22;8349;50.928;6.376;2022-08-21T06:14:09;15.40;99.90
16477;DHT22;8349;50.928;6.376;2022-08-21T06:16:35;15.50;99.90
16477;DHT22;8349;50.928;6.376;2022-08-21T06:19:02;15.60;99.90
16477;DHT22;8349;50.928;6.376;2022-08-21T06:21:29;15.70;99.90
16477;DHT22;8349;50.928;6.376;2022-08-21T06:23:56;15.80;99.90
16477;DHT22;8349;50.928;6.376;2022-08-21T06:26:22;15.90;99.90
16477;DHT22;8349;50.928;6.376;2022-08-21T06:28:51;16.00;99.90
16477;DHT22;8349;50.928;6.376;2022-08-21T06:31:20;16.10;99.90
16477;DHT22;8349;50.928;6.376;2022-08-21T06:33:47;16.20;99.90
16477;DHT22;8349;50.928;6.376;2022-08-21T06:36:14;16.40;99.90
16477;DHT22;8349;50.928;6.376;2022-08-21T06:38:41;16.50;99.90
16477;DHT22;8349;50.928;6.376;2022-08-21T06:41:08;16.70;99.90
16477;DHT22;8349;50.928;6.376;2022-08-21T06:43:35;16.80;99.90
16477;DHT22;8349;50.928;6.376;2022-08-21T06:46:03;16.80;99.90
16477;DHT22;8349;50.928;6.376;2022-08-21T06:48:30;16.90;99.90
16477;DHT22;8349;50.928;6.376;2022-08-21T06:50:58;17.00;99.90
16477;DHT22;8349;50.928;6.376;2022-08-21T06:53:25;17.20;99.90
16477;DHT22;8349;50.928;6.376;2022-08-21T06:55:52;17.30;99.90
16477;DHT22;8349;50.928;6.376;2022-08-21T06:58:19;17.40;99.90
16477;DHT22;8349;50.928;6.376;2022-08-21T07:00:47;17.50;99.90
16477;DHT22;8349;50.928;6.376;2022-08-21T07:03:23;17.60;99.90
16477;DHT22;8349;50.928;6.376;2022-08-21T07:05:51;17.60;99.90
16477;DHT22;8349;50.928;6.376;2022-08-21T07:08:17;17.70;99.90
16477;DHT22;8349;50.928;6.376;2022-08-21T07:10:44;17.90;99.90
16477;DHT22;8349;50.928;6.376;2022-08-21T07:13:12;17.90;99.90
16477;DHT22;8349;50.928;6.376;2022-08-21T07:15:38;17.90;99.90
16477;DHT22;8349;50.928;6.376;2022-08-21T07:18:05;18.00;99.90
16477;DHT22;8349;50.928;6.376;2022-08-21T07:20:34;18.00;99.90
16477;DHT22;8349;50.928;6.376;2022-08-21T07:23:02;18.00;99.90
16477;DHT22;8349;50.928;6.376;2022-08-21T07:25:29;18.00;99.90
16477;DHT22;8349;50.928;6.376;2022-08-21T07:27:56;18.10;99.90
16477;DHT22;8349;50.928;6.376;2022-08-21T07:30:23;18.20;99.90
16477;DHT22;8349;50.928;6.376;2022-08-21T07:32:50;18.30;99.90
16477;DHT22;8349;50.928;6.376;2022-08-21T07:35:17;18.40;99.90
16477;DHT22;8349;50.928;6.376;2022-08-21T07:37:45;18.50;99.90
16477;DHT22;8349;50.928;6.376;2022-08-21T07:40:13;18.70;99.90
16477;DHT22;8349;50.928;6.376;2022-08-21T07:42:41;18.60;99.90
16477;DHT22;8349;50.928;6.376;2022-08-21T07:45:08;18.60;99.90
16477;DHT22;8349;50.928;6.376;2022-08-21T07:47:35;18.60;99.90
16477;DHT22;8349;50.928;6.376;2022-08-21T07:50:02;18.70;99.90
16477;DHT22;8349;50.928;6.376;2022-08-21T07:52:29;18.80;99.90
16477;DHT22;8349;50.928;6.376;2022-08-21T07:54:57;18.90;99.90
16477;DHT22;8349;50.928;6.376;2022-08-21T07:57:24;19.00;99.90
16477;DHT22;8349;50.928;6.376;2022-08-21T07:59:51;19.10;99.90
16477;DHT22;8349;50.928;6.376;2022-08-21T08:02:21;19.20;99.90
16477;DHT22;8349;50.928;6.376;2022-08-21T08:04:48;19.30;99.90
16477;DHT22;8349;50.928;6.376;2022-08-21T08:07:15;19.40;99.90
16477;DHT22;8349;50.928;6.376;2022-08-21T08:09:42;19.50;99.90
16477;DHT22;8349;50.928;6.376;2022-08-21T08:12:11;19.70;99.90
16477;DHT22;8349;50.928;6.376;2022-08-21T08:14:37;19.90;99.90
16477;DHT22;8349;50.928;6.376;2022-08-21T08:17:04;19.80;99.90
16477;DHT22;8349;50.928;6.376;2022-08-21T08:19:31;19.80;99.90
16477;DHT22;8349;50.928;6.376;2022-08-21T08:21:58;19.80;99.90
16477;DHT22;8349;50.928;6.376;2022-08-21T08:24:25;19.90;99.90
16477;DHT22;8349;50.928;6.376;2022-08-21T08:26:51;19.90;99.90
16477;DHT22;8349;50.928;6.376;2022-08-21T08:29:20;19.90;99.90
16477;DHT22;8349;50.928;6.376;2022-08-21T08:31:47;19.90;99.90
16477;DHT22;8349;50.928;6.376;2022-08-21T08:34:14;20.00;99.90
16477;DHT22;8349;50.928;6.376;2022-08-21T08:36:41;20.00;99.90
16477;DHT22;8349;50.928;6.376;2022-08-21T08:39:08;20.10;99.90
16477;DHT22;8349;50.928;6.376;2022-08-21T08:41:35;20.10;99.90
16477;DHT22;8349;50.928;6.376;2022-08-21T08:44:03;20.30;99.90
16477;DHT22;8349;50.928;6.376;2022-08-21T08:46:33;20.40;99.90
16477;DHT22;8349;50.928;6.376;2022-08-21T08:49:03;20.40;99.90
16477;DHT22;8349;50.928;6.376;2022-08-21T08:51:33;20.40;99.90
16477;DHT22;8349;50.928;6.376;2022-08-21T08:54:03;20.50;99.90
16477;DHT22;8349;50.928;6.376;2022-08-21T08:56:33;20.60;99.90
16477;DHT22;8349;50.928;6.376;2022-08-21T08:59:02;20.60;99.90
16477;DHT22;8349;50.928;6.376;2022-08-21T09:01:33;20.60;99.90
16477;DHT22;8349;50.928;6.376;2022-08-21T09:04:00;20.60;99.90
16477;DHT22;8349;50.928;6.376;2022-08-21T09:06:44;20.60;99.90
16477;DHT22;8349;50.928;6.376;2022-08-21T09:09:18;20.80;99.90
16477;DHT22;8349;50.928;6.376;2022-08-21T09:11:48;21.00;99.90
16477;DHT22;8349;50.928;6.376;2022-08-21T09:14:21;21.00;99.90
16477;DHT22;8349;50.928;6.376;2022-08-21T09:16:54;21.10;99.90
16477;DHT22;8349;50.928;6.376;2022-08-21T09:19:27;21.10;99.90
16477;DHT22;8349;50.928;6.376;2022-08-21T09:21:57;21.20;99.90
16477;DHT22;8349;50.928;6.376;2022-08-21T09:24:28;21.20;99.90
16477;DHT22;8349;50.928;6.376;2022-08-21T09:26:58;21.20;99.90
16477;DHT22;8349;50.928;6.376;2022-08-21T09:29:27;21.30;99.90
16477;DHT22;8349;50.928;6.376;2022-08-21T09:31:56;21.40;99.90
16477;DHT22;8349;50.928;6.376;2022-08-21T09:34:24;21.50;99.90
16477;DHT22;8349;50.928;6.376;2022-08-21T09:36:51;21.60;99.90
16477;DHT22;8349;50.928;6.376;2022-08-21T09:39:22;21.70;99.90
16477;DHT22;8349;50.928;6.376;2022-08-21T09:41:54;21.50;99.90
16477;DHT22;8349;50.928;6.376;2022-08-21T09:44:24;21.70;99.90
16477;DHT22;8349;50.928;6.376;2022-08-21T09:46:51;21.90;99.90
16477;DHT22;8349;50.928;6.376;2022-08-21T09:49:27;22.10;99.90
16477;DHT22;8349;50.928;6.376;2022-08-21T09:51:54;22.10;99.90
16477;DHT22;8349;50.928;6.376;2022-08-21T09:54:23;22.30;99.90
16477;DHT22;8349;50.928;6.376;2022-08-21T09:56:53;22.30;99.90
16477;DHT22;8349;50.928;6.376;2022-08-21T09:59:38;22.50;99.90
16477;DHT22;8349;50.928;6.376;2022-08-21T10:02:18;22.40;99.90
16477;DHT22;8349;50.928;6.376;2022-08-21T10:04:50;22.20;99.90
16477;DHT22;8349;50.928;6.376;2022-08-21T10:07:20;22.40;99.90
16477;DHT22;8349;50.928;6.376;2022-08-21T10:09:57;22.50;99.90
16477;DHT22;8349;50.928;6.376;2022-08-21T10:12:25;22.60;99.90
16477;DHT22;8349;50.928;6.376;2022-08-21T10:14:56;23.00;99.90
16477;DHT22;8349;50.928;6.376;2022-08-21T10:17:27;23.00;99.90
16477;DHT22;8349;50.928;6.376;2022-08-21T10:19:59;23.00;99.90
16477;DHT22;8349;50.928;6.376;2022-08-21T10:22:32;22.70;99.90
16477;DHT22;8349;50.928;6.376;2022-08-21T10:25:02;23.00;99.90
16477;DHT22;8349;50.928;6.376;2022-08-21T10:27:34;23.10;99.90
16477;DHT22;8349;50.928;6.376;2022-08-21T10:30:04;23.30;99.90
16477;DHT22;8349;50.928;6.376;2022-08-21T10:32:36;23.40;99.90
16477;DHT22;8349;50.928;6.376;2022-08-21T10:35:09;23.40;99.90
16477;DHT22;8349;50.928;6.376;2022-08-21T10:37:39;23.50;99.90
16477;DHT22;8349;50.928;6.376;2022-08-21T10:40:10;23.60;99.90
16477;DHT22;8349;50.928;6.376;2022-08-21T10:42:45;23.70;99.90
16477;DHT22;8349;50.928;6.376;2022-08-21T10:45:15;23.50;99.90
16477;DHT22;8349;50.928;6.376;2022-08-21T10:47:47;23.40;99.90
16477;DHT22;8349;50.928;6.376;2022-08-21T10:50:23;23.60;99.90
16477;DHT22;8349;50.928;6.376;2022-08-21T10:53:05;23.80;99.90
16477;DHT22;8349;50.928;6.376;2022-08-21T10:55:36;24.10;99.90
16477;DHT22;8349;50.928;6.376;2022-08-21T10:58:08;24.10;99.90
16477;DHT22;8349;50.928;6.376;2022-08-21T11:00:38;23.90;99.90
16477;DHT22;8349;50.928;6.376;2022-08-21T11:03:07;24.10;99.90
16477;DHT22;8349;50.928;6.376;2022-08-21T11:05:39;24.10;99.90
16477;DHT22;8349;50.928;6.376;2022-08-21T11:08:08;24.40;99.90
16477;DHT22;8349;50.928;6.376;2022-08-21T11:10:37;24.80;99.90
16477;DHT22;8349;50.928;6.376;2022-08-21T11:13:08;24.80;99.90
16477;DHT22;8349;50.928;6.376;2022-08-21T11:15:39;24.70;99.90
16477;DHT22;8349;50.928;6.376;2022-08-21T11:18:13;25.00;99.90
16477;DHT22;8349;50.928;6.376;2022-08-21T11:20:50;25.00;99.90
16477;DHT22;8349;50.928;6.376;2022-08-21T11:23:19;25.10;99.90
16477;DHT22;8349;50.928;6.376;2022-08-21T11:25:49;25.00;99.90
16477;DHT22;8349;50.928;6.376;2022-08-21T11:28:17;25.10;99.90
16477;DHT22;8349;50.928;6.376;2022-08-21T11:30:48;25.10;99.90
16477;DHT22;8349;50.928;6.376;2022-08-21T11:33:24;25.60;99.90
16477;DHT22;8349;50.928;6.376;2022-08-21T11:35:56;26.70;99.90
16477;DHT22;8349;50.928;6.376;2022-08-21T11:38:33;28.90;99.90
16477;DHT22;8349;50.928;6.376;2022-08-21T11:43:43;31.80;99.90
16477;DHT22;8349;50.928;6.376;2022-08-21T11:46:12;32.70;99.90
16477;DHT22;8349;50.928;6.376;2022-08-21T11:48:43;33.50;99.90
16477;DHT22;8349;50.928;6.376;2022-08-21T11:51:15;35.30;99.90
16477;DHT22;8349;50.928;6.376;2022-08-21T11:53:46;35.50;99.90
16477;DHT22;8349;50.928;6.376;2022-08-21T11:56:17;36.60;99.90
16477;DHT22;8349;50.928;6.376;2022-08-21T11:58:47;34.20;99.90
16477;DHT22;8349;50.928;6.376;2022-08-21T12:01:15;33.50;99.90
16477;DHT22;8349;50.928;6.376;2022-08-21T12:03:50;32.60;99.90
16477;DHT22;8349;50.928;6.376;2022-08-21T12:06:27;33.00;99.90
16477;DHT22;8349;50.928;6.376;2022-08-21T12:08:57;34.00;99.90
16477;DHT22;8349;50.928;6.376;2022-08-21T12:11:24;33.60;99.90
16477;DHT22;8349;50.928;6.376;2022-08-21T12:13:54;32.80;99.90
16477;DHT22;8349;50.928;6.376;2022-08-21T12:16:28;32.80;99.90
16477;DHT22;8349;50.928;6.376;2022-08-21T12:19:02;34.00;99.90
16477;DHT22;8349;50.928;6.376;2022-08-21T12:21:30;34.60;99.90
16477;DHT22;8349;50.928;6.376;2022-08-21T12:24:05;33.90;99.90
16477;DHT22;8349;50.928;6.376;2022-08-21T12:26:47;33.50;99.90
16477;DHT22;8349;50.928;6.376;2022-08-21T12:29:15;32.30;99.90
16477;DHT22;8349;50.928;6.376;2022-08-21T12:34:30;33.40;99.90
16477;DHT22;8349;50.928;6.376;2022-08-21T12:37:01;32.50;99.90
16477;DHT22;8349;50.928;6.376;2022-08-21T12:39:29;32.30;99.90
16477;DHT22;8349;50.928;6.376;2022-08-21T12:41:58;32.80;99.90
16477;DHT22;8349;50.928;6.376;2022-08-21T12:44:28;33.80;99.90
16477;DHT22;8349;50.928;6.376;2022-08-21T12:46:57;32.90;99.90
16477;DHT22;8349;50.928;6.376;2022-08-21T12:49:26;33.10;99.90
16477;DHT22;8349;50.928;6.376;2022-08-21T12:51:54;33.60;99.90
16477;DHT22;8349;50.928;6.376;2022-08-21T12:54:25;33.60;99.60
16477;DHT22;8349;50.928;6.376;2022-08-21T12:56:56;33.10;99.50
16477;DHT22;8349;50.928;6.376;2022-08-21T12:59:23;34.30;99.90
16477;DHT22;8349;50.928;6.376;2022-08-21T13:01:50;34.70;98.80
16477;DHT22;8349;50.928;6.376;2022-08-21T13:04:22;34.90;99.20
16477;DHT22;8349;50.928;6.376;2022-08-21T13:06:50;34.90;98.50
16477;DHT22;8349;50.928;6.376;2022-08-21T13:09:19;35.80;99.20
16477;DHT22;8349;50.928;6.376;2022-08-21T13:11:48;35.20;97.20
16477;DHT22;8349;50.928;6.376;2022-08-21T13:14:17;34.40;98.00
16477;DHT22;8349;50.928;6.376;2022-08-21T13:16:47;34.70;97.60
16477;DHT22;8349;50.928;6.376;2022-08-21T13:19:17;34.80;97.70
16477;DHT22;8349;50.928;6.376;2022-08-21T13:21:45;35.00;96.80
16477;DHT22;8349;50.928;6.376;2022-08-21T13:24:13;34.40;96.10
16477;DHT22;8349;50.928;6.376;2022-08-21T13:26:41;33.60;96.80
16477;DHT22;8349;50.928;6.376;2022-08-21T13:29:10;32.80;96.90
16477;DHT22;8349;50.928;6.376;2022-08-21T13:31:38;32.60;97.50
16477;DHT22;8349;50.928;6.376;2022-08-21T13:34:07;32.10;98.10
16477;DHT22;8349;50.928;6.376;2022-08-21T13:36:37;31.50;98.80
16477;DHT22;8349;50.928;6.376;2022-08-21T13:39:04;31.00;99.20
16477;DHT22;8349;50.928;6.376;2022-08-21T13:41:32;31.10;98.90
16477;DHT22;8349;50.928;6.376;2022-08-21T13:44:01;30.60;98.80
16477;DHT22;8349;50.928;6.376;2022-08-21T13:46:31;30.10;99.50
16477;DHT22;8349;50.928;6.376;2022-08-21T13:48:59;29.00;99.90
16477;DHT22;8349;50.928;6.376;2022-08-21T13:51:26;28.20;99.90
16477;DHT22;8349;50.928;6.376;2022-08-21T13:53:53;28.70;99.90
16477;DHT22;8349;50.928;6.376;2022-08-21T13:56:21;29.10;99.90
16477;DHT22;8349;50.928;6.376;2022-08-21T13:58:48;29.00;99.90
16477;DHT22;8349;50.928;6.376;2022-08-21T14:01:17;28.60;99.90
16477;DHT22;8349;50.928;6.376;2022-08-21T14:03:46;28.10;99.90
16477;DHT22;8349;50.928;6.376;2022-08-21T14:06:14;27.70;99.90
16477;DHT22;8349;50.928;6.376;2022-08-21T14:08:47;27.80;99.90
16477;DHT22;8349;50.928;6.376;2022-08-21T14:11:16;28.00;99.90
16477;DHT22;8349;50.928;6.376;2022-08-21T14:13:43;28.20;99.90
16477;DHT22;8349;50.928;6.376;2022-08-21T14:16:13;27.60;99.90
16477;DHT22;8349;50.928;6.376;2022-08-21T14:18:45;27.30;99.90
16477;DHT22;8349;50.928;6.376;2022-08-21T14:21:13;26.90;99.90
16477;DHT22;8349;50.928;6.376;2022-08-21T14:23:58;26.70;99.90
16477;DHT22;8349;50.928;6.376;2022-08-21T14:26:25;26.60;99.90
16477;DHT22;8349;50.928;6.376;2022-08-21T14:28:52;26.50;99.90
16477;DHT22;8349;50.928;6.376;2022-08-21T14:31:19;26.50;99.90
16477;DHT22;8349;50.928;6.376;2022-08-21T14:33:46;26.20;99.90
16477;DHT22;8349;50.928;6.376;2022-08-21T14:36:15;26.20;99.90
16477;DHT22;8349;50.928;6.376;2022-08-21T14:38:41;26.00;99.90
16477;DHT22;8349;50.928;6.376;2022-08-21T14:41:11;26.10;99.90
16477;DHT22;8349;50.928;6.376;2022-08-21T14:43:41;26.30;99.90
16477;DHT22;8349;50.928;6.376;2022-08-21T14:46:08;26.20;99.90
16477;DHT22;8349;50.928;6.376;2022-08-21T14:48:35;26.00;99.90
16477;DHT22;8349;50.928;6.376;2022-08-21T14:51:02;26.10;99.90
16477;DHT22;8349;50.928;6.376;2022-08-21T14:53:30;26.20;99.90
16477;DHT22;8349;50.928;6.376;2022-08-21T14:55:57;26.50;99.90
16477;DHT22;8349;50.928;6.376;2022-08-21T14:58:33;26.80;99.90
16477;DHT22;8349;50.928;6.376;2022-08-21T15:01:00;27.80;99.90
16477;DHT22;8349;50.928;6.376;2022-08-21T15:03:29;28.90;99.40
16477;DHT22;8349;50.928;6.376;2022-08-21T15:05:56;28.70;99.30
16477;DHT22;8349;50.928;6.376;2022-08-21T15:08:23;29.20;99.50
16477;DHT22;8349;50.928;6.376;2022-08-21T15:10:52;29.90;99.20
16477;DHT22;8349;50.928;6.376;2022-08-21T15:13:19;30.70;98.80
16477;DHT22;8349;50.928;6.376;2022-08-21T15:15:47;31.20;99.00
16477;DHT22;8349;50.928;6.376;2022-08-21T15:18:15;32.20;98.60
16477;DHT22;8349;50.928;6.376;2022-08-21T15:20:41;32.90;98.20
16477;DHT22;8349;50.928;6.376;2022-08-21T15:23:08;33.60;97.90
16477;DHT22;8349;50.928;6.376;2022-08-21T15:25:35;34.20;97.10
16477;DHT22;8349;50.928;6.376;2022-08-21T15:28:04;34.80;96.70
16477;DHT22;8349;50.928;6.376;2022-08-21T15:30:31;34.00;95.90
16477;DHT22;8349;50.928;6.376;2022-08-21T15:32:58;33.70;96.60
16477;DHT22;8349;50.928;6.376;2022-08-21T15:35:25;33.10;97.20
16477;DHT22;8349;50.928;6.376;2022-08-21T15:37:51;32.90;97.20
16477;DHT22;8349;50.928;6.376;2022-08-21T15:40:18;32.60;97.50
16477;DHT22;8349;50.928;6.376;2022-08-21T15:43:00;32.10;97.90
16477;DHT22;8349;50.928;6.376;2022-08-21T15:45:28;30.80;98.50
16477;DHT22;8349;50.928;6.376;2022-08-21T15:47:55;30.20;99.00
16477;DHT22;8349;50.928;6.376;2022-08-21T15:50:23;29.70;99.60
16477;DHT22;8349;50.928;6.376;2022-08-21T15:52:51;29.10;99.90
16477;DHT22;8349;50.928;6.376;2022-08-21T15:55:18;29.00;99.90
16477;DHT22;8349;50.928;6.376;2022-08-21T15:57:45;29.10;99.90